General Villegas, Argentina
Current Conditions -  °F | °C
As of 2:00 AM on Saturday 29 Nov 2014 (Local Time) from SAOC Reporting Station
Clear Clear  
Wind Chill: 73°   Ceiling: Unl
Heat Index: 73°   Visibility: 6mi
Dew Point: 55°   Wind: 20mph
Humidity: 53%   Direction: 360°N
Pressure: 29.65"   Gusts: NA
Location:  35.03°S, 63.02°W
Report Text: SAOC 290500Z 36017KT CAVOK 23/13 Q1004
Loading
Personal Weather Stations






























Interactive Weather Map New forecast layout! Learn more

10-Day Weather Forecast

Advertisements
Track Severe Weather on mobile